createdAt,value
2023-04-14T00:01:18.602Z,100.00
2023-04-14T00:03:44.964Z,100.00
2023-04-14T00:06:10.944Z,100.00
2023-04-14T00:08:36.854Z,100.00
2023-04-14T00:11:03.005Z,100.00
2023-04-14T00:13:28.927Z,100.00
2023-04-14T00:15:55.643Z,100.00
2023-04-14T00:18:21.495Z,100.00
2023-04-14T00:20:47.526Z,100.00
2023-04-14T00:23:13.431Z,100.00
2023-04-14T00:25:39.554Z,100.00
2023-04-14T00:28:05.387Z,100.00
2023-04-14T00:30:31.185Z,100.00
2023-04-14T00:32:57.080Z,100.00
2023-04-14T00:35:23.839Z,100.00
2023-04-14T00:37:51.175Z,100.00
2023-04-14T00:40:18.009Z,100.00
2023-04-14T00:42:45.082Z,100.00
2023-04-14T00:45:11.515Z,100.00
2023-04-14T00:47:39.071Z,100.00
2023-04-14T00:50:06.058Z,100.00
2023-04-14T00:52:31.928Z,100.00
2023-04-14T00:54:58.831Z,100.00
2023-04-14T00:57:26.490Z,100.00
2023-04-14T00:59:53.507Z,100.00
2023-04-14T01:02:19.754Z,100.00
2023-04-14T01:04:53.508Z,100.00
2023-04-14T01:07:22.311Z,100.00
2023-04-14T01:09:49.338Z,100.00
2023-04-14T01:12:20.436Z,100.00
2023-04-14T01:15:36.133Z,100.00
2023-04-14T01:18:13.034Z,100.00
2023-04-14T01:20:50.928Z,100.00
2023-04-14T01:23:31.200Z,100.00
2023-04-14T01:26:15.481Z,100.00
2023-04-14T01:29:06.309Z,97.68
2023-04-14T01:31:40.487Z,97.36
2023-04-14T01:34:20.583Z,98.20
2023-04-14T01:36:56.209Z,97.61
2023-04-14T01:39:24.062Z,97.01
2023-04-14T01:41:56.047Z,96.28
2023-04-14T01:44:24.639Z,94.10
2023-04-14T01:46:55.928Z,94.45
2023-04-14T01:49:23.030Z,94.01
2023-04-14T01:51:50.470Z,94.34
2023-04-14T01:54:18.138Z,93.69
2023-04-14T01:56:46.157Z,93.87
2023-04-14T01:59:14.868Z,93.90
2023-04-14T02:01:43.417Z,93.27
2023-04-14T02:04:10.860Z,93.99
2023-04-14T02:06:38.808Z,93.43
2023-04-14T02:09:09.664Z,92.98
2023-04-14T02:11:36.860Z,92.89
2023-04-14T02:14:04.257Z,93.87
2023-04-14T02:16:31.054Z,93.14
2023-04-14T02:18:58.809Z,93.47
2023-04-14T02:21:26.559Z,94.32
2023-04-14T02:23:52.412Z,94.62
2023-04-14T02:26:21.793Z,95.53
2023-04-14T02:29:00.668Z,95.83
2023-04-14T02:31:29.645Z,95.74
2023-04-14T02:33:59.852Z,95.10
2023-04-14T02:36:42.480Z,94.99
2023-04-14T02:39:21.227Z,94.93
2023-04-14T02:41:49.895Z,95.21
2023-04-14T02:44:31.787Z,95.38
2023-04-14T02:47:03.551Z,95.16
2023-04-14T02:49:34.021Z,94.62
2023-04-14T02:52:02.538Z,94.91
2023-04-14T02:54:29.035Z,94.79
2023-04-14T02:56:56.699Z,95.90
2023-04-14T02:59:24.138Z,95.78
2023-04-14T03:01:50.999Z,96.24
2023-04-14T03:04:17.581Z,96.16
2023-04-14T03:06:43.914Z,96.14
2023-04-14T03:09:10.467Z,96.58
2023-04-14T03:11:36.763Z,97.48
2023-04-14T03:14:03.243Z,97.32
2023-04-14T03:16:31.032Z,97.72
2023-04-14T03:18:58.403Z,97.82
2023-04-14T03:21:25.888Z,98.45
2023-04-14T03:23:52.581Z,98.01
2023-04-14T03:26:19.922Z,97.76
2023-04-14T03:28:50.067Z,100.00
2023-04-14T03:31:19.024Z,100.00
2023-04-14T03:33:48.379Z,100.00
2023-04-14T03:36:16.506Z,100.00
2023-04-14T03:38:45.020Z,100.00
2023-04-14T03:41:11.645Z,100.00
2023-04-14T03:43:38.374Z,100.00
2023-04-14T03:46:05.398Z,100.00
2023-04-14T03:48:33.841Z,100.00
2023-04-14T03:51:03.345Z,100.00
2023-04-14T03:53:31.247Z,100.00
2023-04-14T03:55:59.177Z,100.00
2023-04-14T03:58:27.788Z,100.00
2023-04-14T04:00:57.465Z,100.00
2023-04-14T04:03:24.408Z,100.00
2023-04-14T04:05:51.953Z,100.00
2023-04-14T04:08:19.175Z,100.00
2023-04-14T04:10:47.524Z,100.00
2023-04-14T04:13:18.632Z,100.00
2023-04-14T04:15:48.768Z,100.00
2023-04-14T04:18:16.254Z,100.00
2023-04-14T04:20:43.212Z,100.00
2023-04-14T04:23:10.839Z,100.00
2023-04-14T04:25:38.923Z,100.00
2023-04-14T04:28:05.015Z,100.00
2023-04-14T04:30:32.548Z,100.00
2023-04-14T04:33:02.651Z,100.00
2023-04-14T04:35:29.149Z,100.00
2023-04-14T04:37:56.062Z,100.00
2023-04-14T04:40:21.880Z,100.00
2023-04-14T04:42:47.819Z,100.00
2023-04-14T04:45:30.774Z,100.00
2023-04-14T04:47:56.751Z,100.00
2023-04-14T04:50:22.648Z,100.00
2023-04-14T04:52:48.481Z,100.00
2023-04-14T04:55:14.808Z,100.00
2023-04-14T04:57:40.700Z,100.00
2023-04-14T05:00:08.261Z,100.00
2023-04-14T05:02:34.073Z,100.00
2023-04-14T05:04:59.912Z,100.00
2023-04-14T05:07:25.845Z,100.00
2023-04-14T05:09:52.540Z,100.00
2023-04-14T05:12:18.407Z,100.00
2023-04-14T05:14:44.447Z,100.00
2023-04-14T05:17:10.341Z,100.00
2023-04-14T05:19:36.315Z,100.00
2023-04-14T05:22:02.117Z,100.00
2023-04-14T05:24:27.953Z,100.00
2023-04-14T05:27:12.505Z,100.00
2023-04-14T05:29:39.782Z,100.00
2023-04-14T05:32:05.713Z,100.00
2023-04-14T05:34:31.582Z,100.00
2023-04-14T05:36:57.441Z,100.00
2023-04-14T05:39:23.845Z,100.00
2023-04-14T05:41:49.638Z,100.00
2023-04-14T05:44:15.531Z,100.00
2023-04-14T05:46:41.462Z,100.00
2023-04-14T05:49:07.308Z,100.00
2023-04-14T05:51:33.655Z,100.00
2023-04-14T05:53:59.768Z,100.00
2023-04-14T05:56:25.839Z,100.00
2023-04-14T05:58:53.530Z,100.00
2023-04-14T06:01:19.415Z,100.00
2023-04-14T06:03:45.582Z,100.00
2023-04-14T06:06:11.570Z,100.00
2023-04-14T06:08:37.427Z,100.00
2023-04-14T06:11:03.373Z,100.00
2023-04-14T06:13:31.494Z,99.22
2023-04-14T06:15:59.899Z,99.14
2023-04-14T06:18:25.941Z,99.12
2023-04-14T06:20:51.822Z,98.63
2023-04-14T06:23:17.634Z,98.62
2023-04-14T06:25:43.470Z,98.82
2023-04-14T06:28:09.474Z,98.67
2023-04-14T06:30:36.229Z,98.80
2023-04-14T06:33:03.795Z,97.73
2023-04-14T06:35:33.520Z,97.85
2023-04-14T06:38:03.134Z,97.56
2023-04-14T06:40:29.037Z,97.38
2023-04-14T06:42:55.140Z,97.14
2023-04-14T06:45:21.054Z,97.40
2023-04-14T06:47:47.016Z,97.27
2023-04-14T06:50:12.950Z,97.07
2023-04-14T06:52:38.778Z,97.00
2023-04-14T06:55:04.927Z,96.04
2023-04-14T06:57:30.732Z,95.86
2023-04-14T06:59:56.612Z,95.51
2023-04-14T07:02:22.522Z,95.41
2023-04-14T07:04:48.583Z,95.17
2023-04-14T07:07:14.647Z,95.47
2023-04-14T07:09:43.891Z,95.27
2023-04-14T07:12:13.939Z,95.28
2023-04-14T07:14:40.516Z,95.97
2023-04-14T07:17:06.383Z,95.87
2023-04-14T07:19:32.181Z,95.95
2023-04-14T07:21:58.077Z,96.33
2023-04-14T07:24:24.000Z,97.11
2023-04-14T07:26:49.800Z,97.42
2023-04-14T07:29:16.056Z,96.96
2023-04-14T07:31:42.279Z,96.84
2023-04-14T07:34:08.189Z,95.93
2023-04-14T07:36:34.158Z,97.75
2023-04-14T07:39:00.229Z,96.30
2023-04-14T07:41:27.276Z,94.29
2023-04-14T07:43:58.373Z,93.46
2023-04-14T07:46:24.304Z,93.98
2023-04-14T07:48:50.598Z,93.74
2023-04-14T07:51:16.654Z,93.18
2023-04-14T07:53:44.274Z,93.27
2023-04-14T07:56:11.372Z,91.45
2023-04-14T07:58:37.631Z,91.80
2023-04-14T08:01:04.686Z,92.56
2023-04-14T08:03:30.725Z,94.88
2023-04-14T08:06:06.887Z,94.20
2023-04-14T08:08:33.679Z,94.96
2023-04-14T08:10:59.627Z,94.48
2023-04-14T08:13:25.412Z,93.90
2023-04-14T08:15:51.257Z,92.04
2023-04-14T08:18:17.533Z,81.81
2023-04-14T08:20:43.631Z,78.67
2023-04-14T08:23:10.963Z,79.87
2023-04-14T08:25:37.476Z,78.70
2023-04-14T08:28:03.505Z,80.19
2023-04-14T08:30:29.378Z,80.13
2023-04-14T08:32:56.982Z,80.63
2023-04-14T08:35:35.233Z,80.60
2023-04-14T08:38:06.173Z,80.03
2023-04-14T08:40:37.583Z,77.14
2023-04-14T08:43:04.248Z,76.61
2023-04-14T08:45:31.834Z,76.55
2023-04-14T08:48:02.251Z,74.67
2023-04-14T08:50:36.340Z,74.86
2023-04-14T08:53:05.532Z,72.69
2023-04-14T08:55:38.357Z,69.96
2023-04-14T08:58:06.787Z,70.27
2023-04-14T09:00:33.967Z,69.31
2023-04-14T09:03:00.108Z,72.09
2023-04-14T09:05:26.404Z,70.21
2023-04-14T09:07:52.919Z,70.90
2023-04-14T09:10:21.448Z,72.13
2023-04-14T09:12:48.150Z,73.02
2023-04-14T09:15:15.805Z,73.01
2023-04-14T09:17:42.276Z,72.49
2023-04-14T09:20:35.747Z,71.00
2023-04-14T09:22:57.266Z,71.62
2023-04-14T09:25:23.226Z,71.27
2023-04-14T09:27:49.163Z,68.93
2023-04-14T09:30:16.959Z,68.13
2023-04-14T09:32:46.176Z,65.82
2023-04-14T09:35:13.501Z,67.18
2023-04-14T09:37:43.907Z,66.37
2023-04-14T09:40:11.166Z,64.21
2023-04-14T09:42:42.137Z,66.85
2023-04-14T09:45:08.871Z,66.37
2023-04-14T09:47:35.083Z,65.41
2023-04-14T09:50:03.016Z,65.00
2023-04-14T09:52:37.822Z,61.15
2023-04-14T09:55:14.706Z,63.45
2023-04-14T09:57:42.080Z,63.59
2023-04-14T10:00:23.909Z,65.49
2023-04-14T10:02:55.589Z,62.76
2023-04-14T10:05:26.337Z,64.08
2023-04-14T10:07:52.214Z,62.28
2023-04-14T10:10:18.027Z,58.37
2023-04-14T10:12:45.020Z,52.20
2023-04-14T10:15:12.148Z,57.68
2023-04-14T10:17:38.854Z,59.98
2023-04-14T10:20:06.265Z,61.05
2023-04-14T10:22:32.364Z,64.38
2023-04-14T10:24:59.033Z,64.62
2023-04-14T10:27:30.637Z,65.40
2023-04-14T10:29:57.729Z,64.44
2023-04-14T10:32:25.665Z,63.62
2023-04-14T10:35:05.884Z,60.93
2023-04-14T10:37:32.739Z,64.47
2023-04-14T10:40:01.192Z,63.31
2023-04-14T10:42:30.249Z,61.54
2023-04-14T10:45:05.130Z,59.64
2023-04-14T10:47:31.534Z,59.51
2023-04-14T10:49:58.157Z,58.61
2023-04-14T10:52:24.630Z,59.60
2023-04-14T10:54:56.551Z,57.69
2023-04-14T10:57:26.546Z,56.43
2023-04-14T10:59:54.388Z,53.41
2023-04-14T11:02:27.858Z,49.80
2023-04-14T11:05:04.717Z,47.80
2023-04-14T11:07:37.400Z,47.37
2023-04-14T11:10:18.769Z,43.49
2023-04-14T11:12:46.539Z,43.91
2023-04-14T11:15:14.801Z,45.09
2023-04-14T11:17:45.215Z,45.67
2023-04-14T11:20:21.724Z,49.57
2023-04-14T11:22:52.301Z,49.14
2023-04-14T11:25:23.046Z,48.92
2023-04-14T11:27:49.833Z,48.92
2023-04-14T11:30:20.489Z,50.20
2023-04-14T11:32:56.054Z,50.22
2023-04-14T11:35:28.266Z,50.10
2023-04-14T11:37:59.043Z,48.70
2023-04-14T11:40:26.752Z,47.85
2023-04-14T11:42:54.936Z,44.84
2023-04-14T11:45:21.188Z,45.51
2023-04-14T11:48:01.004Z,44.12
2023-04-14T11:50:30.418Z,43.63
2023-04-14T11:52:59.055Z,43.25
2023-04-14T11:55:29.189Z,43.33
2023-04-14T11:57:56.444Z,41.68
2023-04-14T12:00:23.664Z,39.93
2023-04-14T12:02:50.519Z,39.67
2023-04-14T12:05:22.887Z,40.52
2023-04-14T12:07:49.622Z,42.35
2023-04-14T12:10:15.645Z,44.61
2023-04-14T12:12:41.856Z,45.73
2023-04-14T12:15:08.912Z,46.65
2023-04-14T12:17:36.603Z,46.61
2023-04-14T12:20:03.532Z,45.09
2023-04-14T12:22:29.995Z,45.95
2023-04-14T12:24:56.821Z,46.95
2023-04-14T12:27:24.500Z,40.96
2023-04-14T12:29:51.313Z,41.10
2023-04-14T12:32:17.583Z,37.83
2023-04-14T12:35:01.618Z,38.18
2023-04-14T12:37:27.848Z,36.39
2023-04-14T12:40:00.064Z,35.52
2023-04-14T12:42:27.673Z,33.57
2023-04-14T12:45:01.482Z,35.16
2023-04-14T12:47:29.697Z,36.32
2023-04-14T12:49:56.386Z,36.72
2023-04-14T12:52:33.826Z,35.05
2023-04-14T12:54:59.827Z,34.85
2023-04-14T12:57:26.506Z,34.84
2023-04-14T12:59:52.405Z,35.47
2023-04-14T13:02:18.348Z,36.49
2023-04-14T13:04:44.426Z,36.32
2023-04-14T13:07:10.347Z,37.33
2023-04-14T13:09:36.174Z,37.15
2023-04-14T13:12:02.050Z,39.24
2023-04-14T13:14:27.896Z,38.93
2023-04-14T13:16:54.737Z,39.73
2023-04-14T13:19:21.892Z,40.62
2023-04-14T13:21:49.661Z,41.68
2023-04-14T13:24:15.637Z,40.97
2023-04-14T13:26:41.516Z,41.52
2023-04-14T13:29:07.491Z,41.16
2023-04-14T13:31:35.125Z,41.70
2023-04-14T13:34:00.974Z,41.22
2023-04-14T13:36:26.963Z,42.10
2023-04-14T13:38:53.929Z,41.73
2023-04-14T13:41:20.008Z,41.32
2023-04-14T13:43:46.022Z,40.81
2023-04-14T13:46:12.019Z,42.44
2023-04-14T13:48:38.121Z,42.28
2023-04-14T13:51:04.673Z,40.86
2023-04-14T13:53:30.592Z,40.90
2023-04-14T13:55:56.400Z,41.27
2023-04-14T13:58:22.342Z,42.00
2023-04-14T14:00:48.239Z,43.13
2023-04-14T14:03:14.312Z,41.92
2023-04-14T14:05:43.031Z,41.94
2023-04-14T14:08:09.022Z,43.43
2023-04-14T14:10:34.887Z,43.76
2023-04-14T14:13:00.762Z,43.00
2023-04-14T14:15:26.708Z,42.78
2023-04-14T14:17:54.467Z,43.54
2023-04-14T14:20:20.664Z,44.95
2023-04-14T14:22:46.645Z,45.67
2023-04-14T14:25:20.275Z,45.57
2023-04-14T14:27:47.213Z,45.74
2023-04-14T14:30:13.114Z,45.67
2023-04-14T14:32:43.045Z,45.33
2023-04-14T14:35:09.749Z,46.39
2023-04-14T14:37:35.869Z,46.54
2023-04-14T14:40:02.095Z,48.41
2023-04-14T14:42:27.951Z,47.68
2023-04-14T14:44:53.779Z,48.92
2023-04-14T14:47:20.012Z,46.78
2023-04-14T14:49:56.565Z,46.48
2023-04-14T14:52:22.915Z,48.14
2023-04-14T14:54:48.740Z,48.21
2023-04-14T14:57:14.635Z,48.77
2023-04-14T14:59:42.477Z,48.80
2023-04-14T15:02:08.680Z,47.68
2023-04-14T15:04:34.649Z,48.41
2023-04-14T15:07:00.836Z,48.58
2023-04-14T15:09:26.778Z,50.60
2023-04-14T15:11:52.614Z,48.34
2023-04-14T15:14:18.576Z,48.35
2023-04-14T15:16:44.502Z,50.19
2023-04-14T15:19:10.549Z,49.65
2023-04-14T15:21:36.387Z,49.84
2023-04-14T15:24:02.471Z,49.60
2023-04-14T15:26:28.478Z,51.01
2023-04-14T15:28:54.777Z,52.34
2023-04-14T15:31:20.879Z,51.27
2023-04-14T15:33:49.730Z,51.77
2023-04-14T15:36:15.674Z,51.33
2023-04-14T15:38:41.559Z,51.16
2023-04-14T15:41:11.147Z,49.88
2023-04-14T15:43:36.962Z,50.17
2023-04-14T15:46:02.854Z,50.75
2023-04-14T15:48:28.973Z,50.57
2023-04-14T15:50:54.962Z,51.94
2023-04-14T15:53:20.798Z,51.51
2023-04-14T15:55:49.498Z,49.98
2023-04-14T15:58:15.426Z,49.91
2023-04-14T16:00:41.242Z,49.84
2023-04-14T16:03:07.285Z,49.90
2023-04-14T16:05:35.169Z,47.80
2023-04-14T16:08:01.375Z,48.50
2023-04-14T16:10:28.103Z,47.71
2023-04-14T16:12:53.994Z,47.32
2023-04-14T16:15:19.824Z,45.80
2023-04-14T16:17:45.969Z,45.06
2023-04-14T16:20:12.889Z,43.54
2023-04-14T16:22:38.965Z,41.27
2023-04-14T16:25:06.194Z,41.84
2023-04-14T16:27:33.011Z,40.88
2023-04-14T16:29:59.327Z,40.23
2023-04-14T16:32:26.189Z,39.92
2023-04-14T16:34:52.008Z,39.61
2023-04-14T16:37:18.889Z,40.37
2023-04-14T16:39:45.623Z,40.32
2023-04-14T16:42:11.714Z,40.36
2023-04-14T16:44:37.755Z,39.60
2023-04-14T16:47:03.661Z,39.63
2023-04-14T16:49:29.950Z,40.30
2023-04-14T16:51:56.861Z,40.77
2023-04-14T16:54:23.259Z,41.70
2023-04-14T16:56:49.074Z,42.01
2023-04-14T16:59:14.887Z,41.27
2023-04-14T17:01:40.755Z,41.29
2023-04-14T17:04:09.062Z,42.15
2023-04-14T17:06:35.555Z,44.00
2023-04-14T17:09:01.514Z,45.13
2023-04-14T17:11:27.414Z,46.96
2023-04-14T17:13:53.344Z,48.22
2023-04-14T17:16:19.523Z,49.36
2023-04-14T17:18:47.567Z,49.92
2023-04-14T17:21:13.396Z,51.33
2023-04-14T17:23:40.157Z,52.90
2023-04-14T17:26:06.218Z,54.03
2023-04-14T17:28:34.111Z,55.45
2023-04-14T17:30:59.950Z,55.57
2023-04-14T17:33:26.565Z,56.78
2023-04-14T17:35:55.600Z,57.05
2023-04-14T17:38:22.758Z,56.94
2023-04-14T17:40:49.886Z,57.37
2023-04-14T17:43:16.004Z,58.20
2023-04-14T17:45:43.161Z,58.57
2023-04-14T17:48:09.566Z,59.33
2023-04-14T17:50:35.428Z,59.49
2023-04-14T17:53:01.332Z,60.17
2023-04-14T17:55:27.542Z,59.73
2023-04-14T17:57:54.561Z,60.49
2023-04-14T18:00:20.595Z,61.06
2023-04-14T18:02:46.745Z,60.99
2023-04-14T18:05:13.256Z,61.05
2023-04-14T18:07:41.114Z,62.75
2023-04-14T18:10:07.597Z,64.16
2023-04-14T18:12:33.829Z,63.94
2023-04-14T18:14:59.754Z,65.19
2023-04-14T18:17:25.733Z,64.54
2023-04-14T18:19:55.590Z,66.23
2023-04-14T18:22:21.450Z,66.69
2023-04-14T18:24:48.568Z,67.61
2023-04-14T18:29:43.342Z,68.70
2023-04-14T18:32:09.209Z,69.20
2023-04-14T18:34:35.327Z,69.15
2023-04-14T18:37:03.151Z,70.02
2023-04-14T18:39:36.072Z,69.68
2023-04-14T18:42:02.945Z,70.91
2023-04-14T18:44:28.914Z,71.12
2023-04-14T18:46:55.607Z,71.59
2023-04-14T18:49:22.423Z,71.16
2023-04-14T18:51:49.109Z,71.35
2023-04-14T18:54:15.084Z,72.34
2023-04-14T18:56:41.133Z,72.53
2023-04-14T18:59:07.005Z,72.58
2023-04-14T19:01:35.433Z,73.13
2023-04-14T19:04:02.419Z,72.67
2023-04-14T19:06:28.472Z,73.95
2023-04-14T19:08:54.380Z,74.10
2023-04-14T19:11:20.281Z,72.97
2023-04-14T19:13:46.470Z,72.53
2023-04-14T19:16:12.754Z,72.77
2023-04-14T19:18:39.147Z,72.40
2023-04-14T19:21:08.657Z,72.63
2023-04-14T19:23:35.235Z,72.73
2023-04-14T19:26:01.752Z,71.94
2023-04-14T19:28:28.609Z,71.42
2023-04-14T19:30:55.016Z,71.95
2023-04-14T19:33:20.855Z,72.12
2023-04-14T19:35:47.966Z,72.02
2023-04-14T19:38:16.175Z,72.17
2023-04-14T19:40:48.930Z,73.25
2023-04-14T19:43:16.017Z,72.59
2023-04-14T19:45:56.438Z,71.05
2023-04-14T19:48:24.517Z,71.44
2023-04-14T19:50:54.569Z,71.72
2023-04-14T19:53:21.497Z,72.55
2023-04-14T19:55:51.476Z,73.20
2023-04-14T19:58:21.454Z,74.69
2023-04-14T20:00:51.104Z,74.84
2023-04-14T20:03:17.824Z,74.63
2023-04-14T20:05:44.058Z,75.62
2023-04-14T20:08:10.038Z,76.11
2023-04-14T20:10:36.200Z,76.97
2023-04-14T20:13:02.299Z,76.22
2023-04-14T20:15:28.622Z,77.24
2023-04-14T20:17:55.007Z,77.08
2023-04-14T20:20:21.280Z,75.64
2023-04-14T20:22:48.714Z,74.17
2023-04-14T20:25:14.703Z,73.73
2023-04-14T20:27:40.525Z,72.77
2023-04-14T20:30:06.930Z,72.02
2023-04-14T20:32:33.431Z,72.90
2023-04-14T20:34:59.924Z,72.94
2023-04-14T20:37:26.090Z,71.85
2023-04-14T20:39:53.596Z,73.15
2023-04-14T20:42:19.478Z,72.56
2023-04-14T20:44:45.725Z,72.86
2023-04-14T20:47:12.021Z,73.09
2023-04-14T20:49:38.600Z,73.90
2023-04-14T20:52:04.984Z,73.92
2023-04-14T20:54:31.150Z,74.45
2023-04-14T20:56:57.270Z,73.97
2023-04-14T20:59:23.613Z,74.89
2023-04-14T21:01:50.705Z,75.73
2023-04-14T21:04:17.136Z,76.08
2023-04-14T21:06:43.470Z,77.25
2023-04-14T21:09:09.475Z,77.26
2023-04-14T21:11:37.353Z,76.55
2023-04-14T21:15:44.282Z,74.56
2023-04-14T21:16:50.166Z,73.51
2023-04-14T21:19:16.594Z,74.11
2023-04-14T21:21:42.370Z,74.53
2023-04-14T21:24:08.404Z,73.97
2023-04-14T21:26:34.243Z,73.03
2023-04-14T21:29:00.526Z,71.41
2023-04-14T21:31:26.715Z,70.87
2023-04-14T21:34:03.882Z,71.21
2023-04-14T21:36:30.341Z,71.57
2023-04-14T21:38:56.521Z,71.38
2023-04-14T21:41:22.453Z,69.63
2023-04-14T21:43:48.312Z,70.51
2023-04-14T21:46:14.293Z,70.78
2023-04-14T21:48:40.454Z,70.47
2023-04-14T21:51:06.905Z,70.84
2023-04-14T21:53:32.792Z,71.65
2023-04-14T21:56:10.365Z,72.10
2023-04-14T21:58:38.488Z,72.67
2023-04-14T22:01:04.930Z,73.53
2023-04-14T22:03:32.514Z,74.51
2023-04-14T22:06:02.024Z,74.26
2023-04-14T22:08:27.885Z,75.36
2023-04-14T22:10:54.325Z,77.07
2023-04-14T22:13:20.334Z,77.86
2023-04-14T22:15:46.262Z,77.60
2023-04-14T22:18:12.289Z,78.13
2023-04-14T22:20:38.966Z,78.89
2023-04-14T22:23:05.305Z,78.59
2023-04-14T22:25:31.256Z,78.89
2023-04-14T22:27:57.045Z,79.56
2023-04-14T22:30:22.995Z,79.90
2023-04-14T22:32:48.962Z,79.87
2023-04-14T22:35:15.624Z,79.40
2023-04-14T22:37:41.473Z,80.13
2023-04-14T22:40:07.787Z,79.20
2023-04-14T22:42:33.556Z,80.34
2023-04-14T22:45:00.572Z,78.98
2023-04-14T22:47:26.426Z,78.76
2023-04-14T22:49:52.213Z,77.85
2023-04-14T22:52:18.857Z,78.47
2023-04-14T22:54:45.142Z,79.09
2023-04-14T22:57:11.001Z,78.79
2023-04-14T22:59:37.038Z,80.26
2023-04-14T23:02:03.646Z,81.25
2023-04-14T23:04:30.722Z,81.91
2023-04-14T23:06:56.621Z,82.33
2023-04-14T23:09:22.419Z,83.01
2023-04-14T23:11:48.636Z,84.46
2023-04-14T23:14:14.477Z,84.97
2023-04-14T23:16:42.525Z,86.07
2023-04-14T23:19:09.650Z,87.08
2023-04-14T23:21:35.462Z,87.89
2023-04-14T23:24:01.284Z,88.77
2023-04-14T23:26:27.840Z,89.02
2023-04-14T23:28:53.664Z,90.66
2023-04-14T23:31:19.592Z,90.56
2023-04-14T23:33:47.918Z,91.21
2023-04-14T23:36:13.785Z,91.47
2023-04-14T23:38:39.640Z,92.04
2023-04-14T23:41:05.460Z,91.01
2023-04-14T23:43:31.298Z,92.07
2023-04-14T23:45:57.264Z,93.72
2023-04-14T23:48:23.242Z,93.53
2023-04-14T23:51:03.437Z,94.84
2023-04-14T23:53:35.379Z,96.00
2023-04-14T23:56:02.939Z,95.21
2023-04-14T23:58:30.160Z,95.38
